LICR/REG METAR and TAF weather

Enter ICAO airport designator
Station Type Date Time Source
LICR METAR 2022/06/28 09:20 UTC NOAA

LICR 280920Z AUTO 29007KT 250V350 9999 NCD 35/16 Q1015


Station Type Date Time Source
LICR Decoded METAR 2022/06/28 09:20 UTC NOAA

Reggio Calabria, Italy (LICR) 38-04N 015-39E 21M
Jun 28, 2022 - 05:20 AM EDT / 2022.06.28 0920 UTC
Wind: from the WNW (290 degrees) at 8 MPH (7 KT) (direction variable):0
Visibility: greater than 7 mile(s):0
Temperature: 95 F (35 C)
Heat index: 95.2 F (35.1 C):1
Dew Point: 60 F (16 C)
Relative Humidity: 32%
Pressure (altimeter): 29.97 in. Hg (1015 hPa)
ob: LICR 280920Z AUTO 29007KT 250V350 9999 NCD 35/16 Q1015
cycle: 9

Station Type Date Time Source
LICR TAF 2022/06/28 06:23 UTC NOAA

TAF LICR 280500Z 2806/2906 VRB05KT CAVOK
BECMG 2807/2809 20010KT
BECMG 2813/2815 35010KT
BECMG 2902/2904 01016G26KT

Example: see airport list